Impacts METAR Board
IDs:

KDTW - Detroit Metro/Wayne, MI, US

Updated at: 1200 UTC 15 Dec 2018
Potential Impact None Slight Moderate High
Time 15/00Z 15/01Z 15/02Z 15/03Z 15/04Z 15/05Z 15/06Z 15/07Z 15/08Z 15/09Z 15/10Z 15/11Z 15/12Z
Temp42 42 41 41 40 38 36 35 34 34 33 33 34
Dewpt39 39 38 38 38 36 34 33 32 31 30 29 28
Altim30.19 30.21 30.19 30.19 30.18 30.17 30.16 30.14 30.19 30.18 30.18 30.16 30.17
VIS3 3 3 2 2 1.5 0.75 1.5 3 3 8 9 8
CIG5 5 5 3 2 2 2 3 250 200 200 200 200
CoverOVCOVCOVCOVCOVCOVCOVCOVCOVCOVCOVCOVCOVC
FltCatIFRIFRIFRLIFRLIFRLIFRLIFRLIFRMVFRMVFRVFRVFRVFR
WXBRBRBRBRBRBRBRBRBR--------
WDir3503600340350350360360340360304030
WSpd4 6 0 6 4 4 5 5 4 5 5 7 10
WGst-- -- -- -- -- -- -- -- -- -- -- -- --
Raw hourly METARs
KDTW 142353Z 35004KT 3SM BR OVC005 06/04 A3019 RMK AO2 SLP229 T00560039 10100 20056 51015
KDTW 150053Z 36006KT 3SM BR OVC005 06/04 A3021 RMK AO2 SLP233 T00560039
KDTW 150153Z 00000KT 3SM BR OVC005 05/03 A3019 RMK AO2 SFC VIS 4 SLP228 T00500033
KDTW 150253Z 34006KT 2SM BR OVC003 05/03 A3019 RMK AO2 SFC VIS 2 1/2 SLP228 T00500033 58001
KDTW 150353Z 35004KT 2SM BR OVC002 04/03 A3018 RMK AO2 SFC VIS 2 1/2 SLP224 T00440033
KDTW 150453Z 35004KT 1 1/2SM BR OVC002 03/02 A3017 RMK AO2 TWR VIS 2 SLP222 T00330022 401000028
KDTW 150553Z 36005KT 3/4SM R03R/3500V5000FT BR OVC002 02/01 A3016 RMK AO2 TWR VIS 2 SLP217 T00220011 10056 20022 58010
KDTW 150653Z 36005KT 1 1/2SM BR BKN003 OVC007 02/01 A3014 RMK AO2 SFC VIS 1 3/4 SLP211 T00170006
KDTW 150753Z 34004KT 3SM BR FEW003 OVC250 01/00 A3019 RMK AO2 SFC VIS 4 SLP227 T00110000
KDTW 150853Z 36005KT 3SM FEW003 OVC200 01/M01 A3018 RMK AO2 SFC VIS 7 SLP226 T00111006 53008
KDTW 150953Z 03005KT 8SM OVC200 01/M01 A3018 RMK AO2 SLP224 T00061011
KDTW 151053Z 04007KT 9SM OVC200 01/M02 A3016 RMK AO2 SLP219 T00061017
KDTW 151153Z 03010KT 8SM OVC200 01/M02 A3017 RMK AO2 SLP223 T00111022 10022 20006 55003



Page loaded:  12:32 UTC  |   04:32 AM Pacific  |   05:32 AM Mountain  |   06:32 AM Central  |   07:32 AM Eastern

 

ADVISORIES

FORECASTS

FORECASTS

OBSERVATIONS

USER TOOLS

ABOUT US